Airfield :
LOGIN :

Register | Disclaimer

   EN    FR    IT 

 










Legend :    VFR   Marginal VFR   IFR   Intensive IFR   Very Intensive IFR
Visi :
Ceiling :
>= 8 km
>= 3000ft
5 to 8 km
1000 to 3000 ft
1500m to 5 km
500 to 1000 ft
800 to 1500m
200 to 500 ft
< 800m
< 200 ft
Symbols :   Thunderstorms  Fog  Heavy snow  Heavy precipitations  Wind > 20 kt
SIGMETs :     Misc.  Thunderstorms  Icing  Turbulence  Mountain Waves  Volcanic Ashes






- Airport Elevation : 51 ft
- IATA code : GWT


EDXW - Westerland-Sylt Island

CURRENT METAR :
  • 161920Z AUTO 33020KT 9999 // FEW018/// OVC023/// 15/11 Q1012

EXPIRED METARs :
  • 161850Z AUTO 33019KT 9999 // BKN023/// OVC027/// 16/12 Q1012
  • 161820Z AUTO 33019KT 9999 // FEW018/// OVC024/// 16/12 Q1012
  • 161750Z 32016KT 9999 FEW013 BKN020 16/12 Q1011
  • 161720Z 33017KT 9999 BKN012 16/14 Q1011
  • 161650Z 33018KT 9999 FEW008 BKN010 16/14 Q1011

TAF TAF EDXW
Valid from the 16 at 18:00 until the 16 at 21:00 UTC


161700Z 1618/1621 33015KT 9999 FEW010 BKN015
TEMPO 1618/1619 33015G25KT 4500 SHRA BKN009CB



MET'MAP, your aeronautical weather chart ! - Copyright ORBIFLY December 2007 - Disclaimer

ORBIFLY MET'MAP TEAM :

Programming & Development : Alexandra Zaïnal
Concept & original design : Baudouin d'Aumeries
Assistance for programming : Marc-Olivier Méhu
Technical & hardware support : Manuel Goepfert

Contact : metmap@orbifly.com




SOURCES & CREDITS :

   NOAA